createdAt,value
2018-09-30T00:01:36.843Z,5.80
2018-09-30T00:04:05.402Z,5.74
2018-09-30T00:06:33.965Z,5.45
2018-09-30T00:09:02.508Z,5.18
2018-09-30T00:11:31.101Z,5.23
2018-09-30T00:13:59.685Z,5.62
2018-09-30T00:16:28.262Z,5.59
2018-09-30T00:18:56.776Z,4.97
2018-09-30T00:21:25.369Z,4.78
2018-09-30T00:23:59.046Z,4.83
2018-09-30T00:26:32.895Z,4.97
2018-09-30T00:29:01.433Z,4.79
2018-09-30T00:31:30.024Z,4.59
2018-09-30T00:34:03.845Z,4.79
2018-09-30T00:36:32.444Z,4.95
2018-09-30T00:39:01.307Z,5.05
2018-09-30T00:41:29.862Z,4.82
2018-09-30T00:43:58.429Z,4.56
2018-09-30T00:46:27.008Z,4.87
2018-09-30T00:48:55.591Z,5.16
2018-09-30T00:51:24.164Z,5.16
2018-09-30T00:53:52.732Z,5.11
2018-09-30T00:56:21.609Z,5.01
2018-09-30T00:58:50.201Z,4.83
2018-09-30T01:01:18.771Z,4.54
2018-09-30T01:03:47.370Z,4.53
2018-09-30T01:06:15.920Z,4.41
2018-09-30T01:08:44.505Z,4.70
2018-09-30T01:11:13.061Z,4.74
2018-09-30T01:13:41.649Z,4.70
2018-09-30T01:16:10.498Z,4.93
2018-09-30T01:18:39.082Z,4.80
2018-09-30T01:21:08.076Z,4.84
2018-09-30T01:23:36.993Z,5.01
2018-09-30T01:26:05.572Z,4.96
2018-09-30T01:28:34.365Z,4.98
2018-09-30T01:31:02.920Z,5.03
2018-09-30T01:33:31.550Z,4.92
2018-09-30T01:36:00.114Z,4.39
2018-09-30T01:38:28.777Z,4.16
2018-09-30T01:40:57.323Z,3.85
2018-09-30T01:43:25.905Z,4.21
2018-09-30T01:45:54.473Z,4.45
2018-09-30T01:48:23.037Z,4.33
2018-09-30T01:50:51.587Z,4.47
2018-09-30T01:53:20.468Z,4.45
2018-09-30T01:55:49.004Z,4.42
2018-09-30T01:58:17.844Z,4.46
2018-09-30T02:00:46.373Z,4.65
2018-09-30T02:03:14.936Z,4.52
2018-09-30T02:05:43.486Z,4.43
2018-09-30T02:08:12.102Z,4.58
2018-09-30T02:10:40.654Z,4.65
2018-09-30T02:13:09.233Z,4.63
2018-09-30T02:15:37.781Z,4.45
2018-09-30T02:18:06.405Z,4.26
2018-09-30T02:20:34.962Z,4.44
2018-09-30T02:23:03.497Z,4.40
2018-09-30T02:25:32.033Z,4.22
2018-09-30T02:28:00.581Z,4.50
2018-09-30T02:30:29.127Z,4.17
2018-09-30T02:32:57.651Z,4.22
2018-09-30T02:35:26.195Z,4.26
2018-09-30T02:37:55.006Z,4.09
2018-09-30T02:40:23.565Z,4.29
2018-09-30T02:42:52.092Z,4.33
2018-09-30T02:45:20.645Z,3.98
2018-09-30T02:47:49.173Z,4.03
2018-09-30T02:50:17.797Z,3.71
2018-09-30T02:52:46.393Z,3.39
2018-09-30T02:55:14.956Z,3.45
2018-09-30T02:57:43.472Z,3.77
2018-09-30T03:00:12.085Z,3.98
2018-09-30T03:02:40.609Z,3.96
2018-09-30T03:05:09.144Z,3.99
2018-09-30T03:07:43.020Z,4.07
2018-09-30T03:10:11.578Z,4.09
2018-09-30T03:12:40.093Z,3.92
2018-09-30T03:15:08.672Z,3.66
2018-09-30T03:17:37.200Z,3.86
2018-09-30T03:20:05.781Z,3.93
2018-09-30T03:22:34.380Z,3.65
2018-09-30T03:25:02.948Z,3.71
2018-09-30T03:27:31.464Z,3.79
2018-09-30T03:30:00.015Z,3.70
2018-09-30T03:32:28.538Z,3.64
2018-09-30T03:34:57.093Z,3.72
2018-09-30T03:37:25.612Z,3.74
2018-09-30T03:39:54.169Z,3.60
2018-09-30T03:42:22.686Z,3.18
2018-09-30T03:44:51.248Z,2.99
2018-09-30T03:47:19.761Z,2.87
2018-09-30T03:49:48.329Z,3.11
2018-09-30T03:52:16.855Z,3.03
2018-09-30T03:54:45.370Z,3.22
2018-09-30T03:57:13.925Z,3.10
2018-09-30T03:59:42.440Z,3.12
2018-09-30T04:02:11.022Z,3.13
2018-09-30T04:04:39.572Z,3.10
2018-09-30T04:07:08.256Z,3.13
2018-09-30T04:09:36.860Z,3.12
2018-09-30T04:12:05.350Z,3.38
2018-09-30T04:14:33.926Z,3.41
2018-09-30T04:17:02.571Z,3.09
2018-09-30T04:19:31.369Z,3.43
2018-09-30T04:21:59.928Z,3.40
2018-09-30T04:24:28.460Z,3.28
2018-09-30T04:26:57.013Z,3.39
2018-09-30T04:29:25.533Z,3.45
2018-09-30T04:31:54.105Z,3.45
2018-09-30T04:34:22.637Z,3.16
2018-09-30T04:36:51.193Z,3.14
2018-09-30T04:39:19.704Z,2.98
2018-09-30T04:41:48.257Z,2.75
2018-09-30T04:44:16.774Z,3.03
2018-09-30T04:46:45.334Z,3.19
2018-09-30T04:49:13.859Z,3.18
2018-09-30T04:51:42.409Z,3.22
2018-09-30T04:54:10.952Z,3.36
2018-09-30T04:56:39.525Z,3.50
2018-09-30T04:59:08.060Z,3.24
2018-09-30T05:01:36.701Z,3.33
2018-09-30T05:04:05.225Z,3.33
2018-09-30T05:06:33.788Z,3.28
2018-09-30T05:09:02.372Z,3.27
2018-09-30T05:11:30.935Z,3.21
2018-09-30T05:13:59.542Z,3.32
2018-09-30T05:16:28.196Z,3.28
2018-09-30T05:18:56.689Z,3.37
2018-09-30T05:21:25.240Z,3.41
2018-09-30T05:23:53.787Z,3.29
2018-09-30T05:26:22.391Z,3.21
2018-09-30T05:28:50.931Z,2.97
2018-09-30T05:31:19.535Z,2.95
2018-09-30T05:33:48.054Z,3.27
2018-09-30T05:36:16.615Z,3.36
2018-09-30T05:38:45.148Z,3.36
2018-09-30T05:41:13.684Z,3.46
2018-09-30T05:43:42.547Z,2.40
2018-09-30T05:46:11.081Z,2.65
2018-09-30T05:48:39.642Z,2.88
2018-09-30T05:51:08.168Z,3.16
2018-09-30T05:53:36.772Z,3.40
2018-09-30T05:56:05.308Z,3.58
2018-09-30T05:58:33.864Z,3.62
2018-09-30T06:01:02.385Z,3.43
2018-09-30T06:03:30.955Z,3.51
2018-09-30T06:05:59.496Z,3.64
2018-09-30T06:08:28.061Z,3.66
2018-09-30T06:10:56.611Z,3.69
2018-09-30T06:13:25.169Z,3.80
2018-09-30T06:15:53.764Z,3.84
2018-09-30T06:18:22.263Z,3.92
2018-09-30T06:20:50.771Z,4.00
2018-09-30T06:23:19.330Z,4.05
2018-09-30T06:25:47.853Z,4.02
2018-09-30T06:28:16.398Z,4.25
2018-09-30T06:30:44.920Z,4.18
2018-09-30T06:33:13.472Z,3.93
2018-09-30T06:35:42.500Z,4.37
2018-09-30T06:38:11.131Z,4.40
2018-09-30T06:40:39.665Z,4.51
2018-09-30T06:43:08.220Z,4.78
2018-09-30T06:45:36.744Z,4.83
2018-09-30T06:48:05.291Z,4.97
2018-09-30T06:50:34.109Z,4.99
2018-09-30T06:53:02.996Z,5.06
2018-09-30T06:55:31.503Z,5.10
2018-09-30T06:58:00.143Z,5.23
2018-09-30T07:00:28.662Z,5.41
2018-09-30T07:02:57.185Z,5.47
2018-09-30T07:05:25.788Z,5.49
2018-09-30T07:07:54.470Z,5.66
2018-09-30T07:10:23.046Z,5.66
2018-09-30T07:12:51.568Z,5.86
2018-09-30T07:15:20.184Z,5.87
2018-09-30T07:17:48.720Z,6.09
2018-09-30T07:20:17.290Z,6.18
2018-09-30T07:22:45.838Z,6.29
2018-09-30T07:25:14.397Z,6.38
2018-09-30T07:27:42.913Z,6.47
2018-09-30T07:30:11.470Z,6.60
2018-09-30T07:32:39.996Z,6.74
2018-09-30T07:35:08.666Z,6.84
2018-09-30T07:37:37.203Z,6.94
2018-09-30T07:40:05.821Z,7.06
2018-09-30T07:42:34.353Z,7.15
2018-09-30T07:45:02.913Z,7.32
2018-09-30T07:47:31.529Z,7.44
2018-09-30T07:50:00.103Z,7.57
2018-09-30T07:52:28.677Z,7.65
2018-09-30T07:54:57.233Z,7.71
2018-09-30T07:57:25.770Z,7.81
2018-09-30T07:59:54.320Z,7.90
2018-09-30T08:02:22.845Z,8.05
2018-09-30T08:04:51.401Z,8.21
2018-09-30T08:07:19.917Z,8.29
2018-09-30T08:09:48.489Z,8.50
2018-09-30T08:12:18.413Z,8.53
2018-09-30T08:14:47.016Z,8.68
2018-09-30T08:17:15.542Z,8.79
2018-09-30T08:19:44.098Z,8.90
2018-09-30T08:22:12.612Z,9.01
2018-09-30T08:24:41.142Z,9.03
2018-09-30T08:27:10.441Z,9.20
2018-09-30T08:29:38.996Z,9.27
2018-09-30T08:32:07.500Z,9.24
2018-09-30T08:34:36.052Z,9.31
2018-09-30T08:37:04.549Z,9.41
2018-09-30T08:39:33.116Z,9.56
2018-09-30T08:42:01.629Z,9.64
2018-09-30T08:44:30.456Z,9.73
2018-09-30T08:46:59.005Z,9.87
2018-09-30T08:49:27.553Z,9.95
2018-09-30T08:51:56.081Z,10.05
2018-09-30T08:54:24.601Z,10.10
2018-09-30T08:56:53.157Z,10.26
2018-09-30T08:59:21.689Z,10.33
2018-09-30T09:01:50.254Z,10.36
2018-09-30T09:04:18.772Z,10.63
2018-09-30T09:06:47.335Z,10.75
2018-09-30T09:09:15.860Z,10.72
2018-09-30T09:11:44.429Z,10.76
2018-09-30T09:14:13.010Z,10.87
2018-09-30T09:16:41.616Z,10.95
2018-09-30T09:19:10.149Z,11.12
2018-09-30T09:21:38.946Z,11.60
2018-09-30T09:24:07.507Z,11.41
2018-09-30T09:26:36.062Z,11.44
2018-09-30T09:29:04.608Z,11.75
2018-09-30T09:31:33.201Z,11.70
2018-09-30T09:34:01.753Z,11.82
2018-09-30T09:36:33.951Z,11.75
2018-09-30T09:39:05.062Z,11.83
2018-09-30T09:41:33.629Z,12.07
2018-09-30T09:44:02.161Z,12.10
2018-09-30T09:46:34.281Z,12.07
2018-09-30T09:49:06.681Z,11.98
2018-09-30T09:51:37.455Z,12.12
2018-09-30T09:54:12.416Z,12.35
2018-09-30T09:56:42.765Z,12.27
2018-09-30T09:59:11.363Z,12.31
2018-09-30T10:01:40.142Z,12.45
2018-09-30T10:04:11.344Z,12.39
2018-09-30T10:06:40.087Z,12.46
2018-09-30T10:09:08.764Z,12.54
2018-09-30T10:11:41.437Z,12.56
2018-09-30T10:14:11.559Z,12.79
2018-09-30T10:16:46.342Z,13.05
2018-09-30T10:19:18.724Z,13.18
2018-09-30T10:21:48.981Z,13.38
2018-09-30T10:24:18.721Z,13.18
2018-09-30T10:26:47.677Z,13.23
2018-09-30T10:29:20.168Z,13.27
2018-09-30T10:31:48.728Z,13.34
2018-09-30T10:34:18.708Z,13.45
2018-09-30T10:36:47.857Z,13.43
2018-09-30T10:39:16.501Z,13.82
2018-09-30T10:41:45.448Z,13.65
2018-09-30T10:44:15.197Z,13.65
2018-09-30T10:46:44.365Z,13.76
2018-09-30T10:49:14.017Z,13.88
2018-09-30T10:51:42.585Z,13.88
2018-09-30T10:54:11.355Z,14.07
2018-09-30T10:56:40.155Z,14.15
2018-09-30T10:59:10.214Z,14.20
2018-09-30T11:01:39.628Z,14.12
2018-09-30T11:04:12.602Z,14.19
2018-09-30T11:06:47.101Z,14.56
2018-09-30T11:09:16.303Z,14.54
2018-09-30T11:11:46.378Z,14.63
2018-09-30T11:14:16.666Z,14.65
2018-09-30T11:16:46.614Z,14.77
2018-09-30T11:19:15.269Z,15.01
2018-09-30T11:21:45.125Z,15.11
2018-09-30T11:24:14.562Z,15.51
2018-09-30T11:26:43.986Z,15.40
2018-09-30T11:29:13.954Z,15.47
2018-09-30T11:31:43.645Z,15.42
2018-09-30T11:34:19.099Z,15.37
2018-09-30T11:36:49.316Z,15.32
2018-09-30T11:39:20.018Z,15.27
2018-09-30T11:41:48.525Z,15.39
2018-09-30T11:44:17.788Z,15.70
2018-09-30T11:46:50.969Z,15.90
2018-09-30T11:49:23.626Z,16.03
2018-09-30T11:51:59.499Z,15.78
2018-09-30T11:54:31.643Z,16.08
2018-09-30T11:57:00.744Z,16.46
2018-09-30T11:59:29.272Z,16.73
2018-09-30T12:01:58.005Z,16.71
2018-09-30T12:04:27.670Z,16.99
2018-09-30T12:06:56.288Z,16.88
2018-09-30T12:09:24.848Z,16.79
2018-09-30T12:11:53.360Z,17.20
2018-09-30T12:14:21.949Z,17.22
2018-09-30T12:16:50.485Z,17.19
2018-09-30T12:19:19.049Z,17.12
2018-09-30T12:21:47.577Z,17.31
2018-09-30T12:24:16.153Z,17.36
2018-09-30T12:26:44.689Z,17.42
2018-09-30T12:29:13.293Z,17.31
2018-09-30T12:31:41.839Z,17.19
2018-09-30T12:34:10.401Z,17.45
2018-09-30T12:36:38.926Z,17.49
2018-09-30T12:39:09.193Z,17.60
2018-09-30T12:41:37.710Z,17.69
2018-09-30T12:44:06.404Z,17.48
2018-09-30T12:46:34.933Z,17.52
2018-09-30T12:49:03.543Z,17.60
2018-09-30T12:51:32.057Z,17.59
2018-09-30T12:54:00.621Z,17.66
2018-09-30T12:56:29.194Z,17.93
2018-09-30T12:58:57.788Z,17.79
2018-09-30T13:01:26.325Z,17.78
2018-09-30T13:03:54.885Z,17.91
2018-09-30T13:06:23.403Z,17.84
2018-09-30T13:08:51.952Z,18.07
2018-09-30T13:11:20.473Z,18.23
2018-09-30T13:13:49.056Z,18.30
2018-09-30T13:16:17.613Z,18.02
2018-09-30T13:18:46.161Z,17.97
2018-09-30T13:21:14.689Z,18.16
2018-09-30T13:23:43.314Z,18.30
2018-09-30T13:26:11.840Z,18.38
2018-09-30T13:28:40.389Z,18.25
2018-09-30T13:31:08.950Z,18.32
2018-09-30T13:33:37.539Z,18.20
2018-09-30T13:36:06.062Z,18.22
2018-09-30T13:38:35.639Z,18.52
2018-09-30T13:41:04.477Z,18.67
2018-09-30T13:43:36.927Z,18.73
2018-09-30T13:46:05.621Z,18.64
2018-09-30T13:48:34.456Z,18.61
2018-09-30T13:51:03.992Z,18.68
2018-09-30T13:53:32.536Z,18.63
2018-09-30T13:56:01.156Z,18.76
2018-09-30T13:58:29.762Z,18.72
2018-09-30T14:00:58.305Z,18.81
2018-09-30T14:03:26.842Z,18.89
2018-09-30T14:05:55.412Z,18.81
2018-09-30T14:08:23.949Z,18.74
2018-09-30T14:10:52.551Z,18.80
2018-09-30T14:13:21.084Z,18.95
2018-09-30T14:15:49.661Z,19.06
2018-09-30T14:18:18.176Z,18.98
2018-09-30T14:20:46.735Z,19.08
2018-09-30T14:23:15.665Z,19.09
2018-09-30T14:25:44.231Z,18.91
2018-09-30T14:28:12.748Z,19.23
2018-09-30T14:30:41.284Z,19.40
2018-09-30T14:33:09.800Z,19.33
2018-09-30T14:35:38.357Z,19.40
2018-09-30T14:38:07.364Z,19.58
2018-09-30T14:40:36.273Z,19.50
2018-09-30T14:43:11.284Z,19.90
2018-09-30T14:45:39.850Z,19.74
2018-09-30T14:48:08.395Z,19.77
2018-09-30T14:50:36.952Z,19.71
2018-09-30T14:53:05.473Z,20.22
2018-09-30T14:55:34.018Z,20.08
2018-09-30T14:58:02.605Z,20.03
2018-09-30T15:00:31.230Z,19.92
2018-09-30T15:02:59.753Z,19.68
2018-09-30T15:05:28.304Z,20.21
2018-09-30T15:08:28.373Z,20.69
2018-09-30T15:11:14.280Z,20.46
2018-09-30T15:16:22.652Z,20.94
2018-09-30T15:18:51.448Z,20.80
2018-09-30T15:21:19.989Z,20.48
2018-09-30T15:23:48.506Z,20.46
2018-09-30T15:26:17.053Z,20.50
2018-09-30T15:28:45.574Z,20.75
2018-09-30T15:31:14.213Z,20.30
2018-09-30T15:33:42.745Z,20.13
2018-09-30T15:36:11.301Z,20.33
2018-09-30T15:38:39.864Z,20.31
2018-09-30T15:41:08.410Z,20.37
2018-09-30T15:43:36.924Z,20.23
2018-09-30T15:46:05.493Z,20.43
2018-09-30T15:48:34.002Z,19.84
2018-09-30T15:51:02.953Z,19.79
2018-09-30T15:53:31.496Z,19.82
2018-09-30T15:56:00.128Z,19.88
2018-09-30T15:58:29.000Z,19.41
2018-09-30T16:00:57.545Z,18.91
2018-09-30T16:03:26.061Z,18.41
2018-09-30T16:05:54.789Z,18.13
2018-09-30T16:08:23.379Z,18.02
2018-09-30T16:10:56.348Z,17.84
2018-09-30T16:13:27.908Z,17.73
2018-09-30T16:15:59.703Z,17.64
2018-09-30T16:18:30.387Z,17.51
2018-09-30T16:21:00.101Z,17.41
2018-09-30T16:23:30.056Z,17.36
2018-09-30T16:25:59.403Z,17.29
2018-09-30T16:28:30.074Z,17.26
2018-09-30T16:30:59.341Z,17.11
2018-09-30T16:33:29.688Z,17.07
2018-09-30T16:35:59.754Z,16.99
2018-09-30T16:38:30.824Z,16.95
2018-09-30T16:41:00.093Z,16.87
2018-09-30T16:43:28.842Z,16.88
2018-09-30T16:45:57.541Z,16.86
2018-09-30T16:48:26.303Z,16.90
2018-09-30T16:50:54.964Z,16.80
2018-09-30T16:53:23.537Z,16.68
2018-09-30T16:55:52.064Z,16.36
2018-09-30T16:58:20.635Z,16.40
2018-09-30T17:00:49.164Z,16.24
2018-09-30T17:03:17.729Z,16.19
2018-09-30T17:05:46.251Z,16.00
2018-09-30T17:08:14.800Z,16.00
2018-09-30T17:10:43.312Z,15.70
2018-09-30T17:13:11.942Z,15.44
2018-09-30T17:15:47.513Z,15.01
2018-09-30T17:18:22.856Z,15.06
2018-09-30T17:20:58.171Z,15.02
2018-09-30T17:23:27.054Z,14.52
2018-09-30T17:25:56.280Z,14.70
2018-09-30T17:28:24.805Z,14.72
2018-09-30T17:30:53.305Z,14.80
2018-09-30T17:33:21.834Z,14.65
2018-09-30T17:35:50.336Z,14.56
2018-09-30T17:38:18.866Z,14.42
2018-09-30T17:40:47.360Z,14.34
2018-09-30T17:43:15.954Z,14.04
2018-09-30T17:45:44.916Z,14.04
2018-09-30T17:48:13.477Z,13.83
2018-09-30T17:50:42.071Z,13.76
2018-09-30T17:53:10.684Z,13.45
2018-09-30T17:55:39.188Z,13.51
2018-09-30T17:58:10.875Z,13.26
2018-09-30T18:00:39.575Z,13.42
2018-09-30T18:03:08.124Z,12.52
2018-09-30T18:05:36.721Z,12.98
2018-09-30T18:08:05.411Z,12.75
2018-09-30T18:10:34.529Z,12.97
2018-09-30T18:13:03.454Z,12.67
2018-09-30T18:15:50.357Z,12.64
2018-09-30T18:18:28.888Z,12.73
2018-09-30T18:20:58.870Z,12.66
2018-09-30T18:23:31.745Z,12.46
2018-09-30T18:26:00.774Z,12.17
2018-09-30T18:28:32.269Z,12.15
2018-09-30T18:31:06.214Z,11.99
2018-09-30T18:33:34.893Z,11.87
2018-09-30T18:36:03.438Z,11.76
2018-09-30T18:38:32.040Z,11.93
2018-09-30T18:41:00.587Z,11.92
2018-09-30T18:43:30.321Z,11.90
2018-09-30T18:46:05.516Z,11.86
2018-09-30T18:48:36.461Z,11.70
2018-09-30T18:51:08.929Z,11.59
2018-09-30T18:53:37.598Z,11.71
2018-09-30T18:56:06.279Z,11.55
2018-09-30T18:58:34.772Z,11.33
2018-09-30T19:01:03.303Z,11.45
2018-09-30T19:03:31.901Z,10.94
2018-09-30T19:06:00.689Z,11.05
2018-09-30T19:08:31.548Z,10.89
2018-09-30T19:11:02.569Z,10.84
2018-09-30T19:13:33.795Z,10.86
2018-09-30T19:16:02.577Z,10.73
2018-09-30T19:18:31.200Z,10.64
2018-09-30T19:20:59.829Z,10.60
2018-09-30T19:23:28.549Z,10.57
2018-09-30T19:25:57.182Z,10.78
2018-09-30T19:28:32.233Z,10.93
2018-09-30T19:31:00.912Z,10.85
2018-09-30T19:33:29.486Z,10.72
2018-09-30T19:35:58.021Z,10.79
2018-09-30T19:38:26.720Z,10.58
2018-09-30T19:40:55.306Z,10.40
2018-09-30T19:43:23.906Z,10.26
2018-09-30T19:45:52.930Z,10.25
2018-09-30T19:48:21.470Z,10.09
2018-09-30T19:50:50.062Z,10.11
2018-09-30T19:53:18.729Z,9.99
2018-09-30T19:55:47.317Z,9.70
2018-09-30T19:58:18.460Z,9.29
2018-09-30T20:00:47.295Z,9.34
2018-09-30T20:03:15.832Z,9.61
2018-09-30T20:05:44.393Z,9.22
2018-09-30T20:08:15.177Z,9.23
2018-09-30T20:10:46.523Z,9.07
2018-09-30T20:13:16.363Z,9.56
2018-09-30T20:15:45.740Z,10.18
2018-09-30T20:18:14.808Z,10.51
2018-09-30T20:20:43.953Z,10.59
2018-09-30T20:23:14.884Z,10.78
2018-09-30T20:25:44.359Z,10.88
2018-09-30T20:28:13.820Z,11.01
2018-09-30T20:30:44.142Z,11.23
2018-09-30T20:33:13.519Z,11.23
2018-09-30T20:35:43.279Z,11.25
2018-09-30T20:38:13.091Z,11.38
2018-09-30T20:40:42.915Z,11.48
2018-09-30T20:43:12.592Z,11.60
2018-09-30T20:45:41.226Z,11.55
2018-09-30T20:48:09.997Z,11.58
2018-09-30T20:50:40.180Z,11.60
2018-09-30T20:53:10.403Z,11.82
2018-09-30T20:55:40.917Z,11.84
2018-09-30T20:58:11.334Z,11.88
2018-09-30T21:00:39.941Z,11.82
2018-09-30T21:03:10.072Z,11.89
2018-09-30T21:08:57.177Z,11.90
2018-09-30T21:11:27.504Z,11.75
2018-09-30T21:13:56.388Z,11.78
2018-09-30T21:16:27.515Z,11.71
2018-09-30T21:19:02.366Z,11.67
2018-09-30T21:21:39.279Z,11.62
2018-09-30T21:24:13.151Z,11.46
2018-09-30T21:26:47.095Z,11.34
2018-09-30T21:29:16.313Z,11.36
2018-09-30T21:31:48.157Z,11.40
2018-09-30T21:34:16.743Z,11.25
2018-09-30T21:36:46.717Z,11.07
2018-09-30T21:39:15.770Z,11.03
2018-09-30T21:41:44.570Z,10.78
2018-09-30T21:44:13.299Z,10.75
2018-09-30T21:46:42.962Z,10.58
2018-09-30T21:49:12.145Z,10.02
2018-09-30T21:51:41.276Z,10.25
2018-09-30T21:54:10.657Z,10.37
2018-09-30T21:56:40.393Z,10.36
2018-09-30T21:59:09.302Z,10.46
2018-09-30T22:01:38.310Z,10.37
2018-09-30T22:04:07.840Z,9.88
2018-09-30T22:06:37.589Z,10.07
2018-09-30T22:09:07.294Z,10.02
2018-09-30T22:11:35.956Z,9.37
2018-09-30T22:14:05.064Z,9.86
2018-09-30T22:16:35.876Z,9.73
2018-09-30T22:19:14.353Z,9.84
2018-09-30T22:21:42.947Z,9.53
2018-09-30T22:24:11.468Z,9.67
2018-09-30T22:26:55.671Z,9.56
2018-09-30T22:29:25.119Z,9.61
2018-09-30T22:31:53.692Z,9.66
2018-09-30T22:34:22.383Z,9.49
2018-09-30T22:36:50.993Z,9.86
2018-09-30T22:39:19.842Z,9.86
2018-09-30T22:41:49.456Z,9.87
2018-09-30T22:44:18.988Z,9.60
2018-09-30T22:46:48.086Z,9.68
2018-09-30T22:49:16.725Z,9.48
2018-09-30T22:51:45.296Z,9.35
2018-09-30T22:54:15.589Z,9.30
2018-09-30T22:56:45.057Z,9.37
2018-09-30T22:59:13.626Z,9.25
2018-09-30T23:01:42.181Z,8.91
2018-09-30T23:04:10.693Z,8.82
2018-09-30T23:06:39.297Z,8.48
2018-09-30T23:09:09.764Z,8.69
2018-09-30T23:11:39.100Z,8.83
2018-09-30T23:14:08.596Z,8.81
2018-09-30T23:16:37.152Z,8.76
2018-09-30T23:19:05.682Z,8.71
2018-09-30T23:21:34.237Z,8.80
2018-09-30T23:24:02.745Z,8.53
2018-09-30T23:26:31.292Z,8.66
2018-09-30T23:29:00.029Z,8.50
2018-09-30T23:31:29.796Z,8.67
2018-09-30T23:33:58.297Z,8.64
2018-09-30T23:36:26.804Z,8.40
2018-09-30T23:38:55.344Z,8.72
2018-09-30T23:41:23.861Z,8.41
2018-09-30T23:43:52.425Z,8.33
2018-09-30T23:46:20.977Z,7.69
2018-09-30T23:48:49.840Z,8.02
2018-09-30T23:51:21.208Z,8.19
2018-09-30T23:53:49.757Z,8.43
2018-09-30T23:56:18.283Z,8.52
2018-09-30T23:58:46.838Z,8.27
